createdAt,value
2018-08-19T00:00:14.723Z,23.37
2018-08-19T00:02:43.535Z,21.30
2018-08-19T00:05:16.941Z,29.13
2018-08-19T00:07:46.575Z,23.30
2018-08-19T00:10:15.413Z,21.10
2018-08-19T00:12:47.806Z,20.97
2018-08-19T00:15:16.673Z,21.00
2018-08-19T00:17:45.580Z,20.07
2018-08-19T00:20:14.899Z,27.00
2018-08-19T00:22:43.700Z,25.30
2018-08-19T00:25:37.268Z,31.43
2018-08-19T00:28:18.427Z,28.00
2018-08-19T00:30:47.270Z,30.80
2018-08-19T00:33:16.188Z,24.70
2018-08-19T00:35:45.482Z,33.60
2018-08-19T00:38:15.795Z,27.70
2018-08-19T00:40:44.985Z,27.60
2018-08-19T00:43:13.786Z,29.90
2018-08-19T00:45:42.602Z,25.97
2018-08-19T00:48:12.961Z,28.17
2018-08-19T00:50:42.057Z,36.43
2018-08-19T00:53:11.782Z,27.97
2018-08-19T00:55:47.904Z,33.17
2018-08-19T00:58:20.666Z,35.97
2018-08-19T01:00:49.551Z,27.73
2018-08-19T01:03:18.421Z,30.73
2018-08-19T01:05:47.262Z,30.27
2018-08-19T01:08:16.422Z,35.60
2018-08-19T01:10:45.355Z,31.07
2018-08-19T01:13:14.405Z,37.00
2018-08-19T01:15:43.188Z,31.57
2018-08-19T01:18:12.090Z,27.73
2018-08-19T01:20:40.908Z,26.10
2018-08-19T01:23:09.772Z,29.70
2018-08-19T01:25:38.643Z,29.80
2018-08-19T01:28:07.510Z,29.83
2018-08-19T01:30:36.365Z,33.57
2018-08-19T01:33:05.221Z,36.43
2018-08-19T01:35:40.371Z,36.73
2018-08-19T01:38:09.194Z,32.27
2018-08-19T01:40:38.038Z,36.03
2018-08-19T01:43:07.101Z,37.93
2018-08-19T01:45:35.990Z,32.57
2018-08-19T01:48:04.892Z,35.40
2018-08-19T01:50:33.790Z,36.33
2018-08-19T01:53:02.976Z,34.67
2018-08-19T01:55:31.824Z,34.97
2018-08-19T01:58:00.741Z,34.07
2018-08-19T02:00:29.492Z,30.93
2018-08-19T02:03:03.161Z,31.70
2018-08-19T02:05:32.097Z,34.20
2018-08-19T02:08:02.277Z,40.00
2018-08-19T02:10:32.157Z,40.23
2018-08-19T02:13:01.112Z,38.63
2018-08-19T02:15:31.118Z,35.23
2018-08-19T02:18:02.105Z,45.27
2018-08-19T02:20:33.973Z,29.57
2018-08-19T02:23:03.814Z,38.90
2018-08-19T02:25:43.119Z,34.67
2018-08-19T02:28:12.520Z,41.90
2018-08-19T02:30:52.681Z,44.70
2018-08-19T02:33:22.608Z,46.27
2018-08-19T02:36:07.807Z,47.17
2018-08-19T02:38:37.924Z,40.00
2018-08-19T02:41:07.351Z,43.20
2018-08-19T02:43:39.995Z,39.63
2018-08-19T02:46:08.903Z,40.50
2018-08-19T02:48:45.441Z,39.00
2018-08-19T02:51:16.390Z,48.97
2018-08-19T02:53:46.433Z,44.30
2018-08-19T02:56:15.996Z,48.50
2018-08-19T02:58:45.841Z,46.80
2018-08-19T03:01:15.657Z,39.83
2018-08-19T03:03:44.524Z,42.80
2018-08-19T03:06:13.364Z,45.47
2018-08-19T03:08:47.897Z,55.87
2018-08-19T03:11:18.807Z,47.67
2018-08-19T03:13:47.789Z,41.77
2018-08-19T03:16:16.625Z,52.00
2018-08-19T03:18:45.629Z,48.07
2018-08-19T03:21:14.493Z,40.33
2018-08-19T03:23:43.436Z,41.13
2018-08-19T03:26:12.260Z,45.00
2018-08-19T03:28:41.106Z,45.83
2018-08-19T03:31:12.593Z,39.50
2018-08-19T03:33:41.542Z,46.70
2018-08-19T03:36:10.398Z,39.50
2018-08-19T03:38:39.199Z,38.07
2018-08-19T03:41:08.802Z,46.17
2018-08-19T03:43:38.027Z,55.90
2018-08-19T03:46:23.891Z,44.93
2018-08-19T03:48:52.703Z,37.77
2018-08-19T03:51:21.510Z,48.47
2018-08-19T03:53:50.290Z,59.93
2018-08-19T03:56:24.573Z,43.03
2018-08-19T03:58:57.502Z,46.20
2018-08-19T04:01:38.126Z,54.20
2018-08-19T04:04:07.012Z,42.77
2018-08-19T04:06:38.663Z,45.17
2018-08-19T04:09:07.761Z,41.60
2018-08-19T04:11:36.584Z,42.83
2018-08-19T04:14:17.251Z,44.00
2018-08-19T04:16:46.103Z,43.47
2018-08-19T04:19:14.880Z,46.93
2018-08-19T04:21:43.720Z,42.23
2018-08-19T04:24:12.502Z,38.57
2018-08-19T04:26:41.491Z,40.30
2018-08-19T04:29:16.309Z,40.27
2018-08-19T04:31:45.139Z,44.13
2018-08-19T04:34:13.900Z,45.00
2018-08-19T04:36:42.763Z,49.13
2018-08-19T04:39:11.566Z,43.10
2018-08-19T04:41:40.445Z,41.70
2018-08-19T04:44:09.361Z,41.03
2018-08-19T04:46:38.192Z,48.17
2018-08-19T04:49:07.020Z,41.13
2018-08-19T04:51:35.825Z,39.73
2018-08-19T04:54:05.981Z,40.73
2018-08-19T04:56:34.811Z,51.40
2018-08-19T04:59:05.655Z,33.87
2018-08-19T05:01:34.489Z,38.27
2018-08-19T05:04:03.398Z,39.30
2018-08-19T05:06:32.277Z,46.00
2018-08-19T05:09:01.034Z,41.87
2018-08-19T05:11:29.852Z,36.37
2018-08-19T05:13:59.373Z,43.93
2018-08-19T05:16:28.377Z,43.17
2018-08-19T05:19:02.504Z,42.43
2018-08-19T05:21:31.444Z,42.83
2018-08-19T05:24:00.371Z,40.60
2018-08-19T05:26:29.473Z,38.17
2018-08-19T05:29:08.077Z,41.07
2018-08-19T05:31:47.121Z,42.90
2018-08-19T05:36:57.972Z,38.37
2018-08-19T05:39:26.938Z,33.33
2018-08-19T05:42:03.204Z,37.23
2018-08-19T05:44:34.656Z,32.90
2018-08-19T05:47:07.803Z,46.50
2018-08-19T05:49:38.422Z,37.67
2018-08-19T05:52:12.632Z,55.53
2018-08-19T05:54:46.937Z,37.53
2018-08-19T05:57:16.907Z,33.93
2018-08-19T05:59:47.709Z,38.80
2018-08-19T06:02:17.927Z,33.20
2018-08-19T06:04:47.265Z,45.73
2018-08-19T06:07:16.857Z,34.23
2018-08-19T06:09:46.603Z,30.70
2018-08-19T06:12:15.629Z,37.00
2018-08-19T06:14:44.612Z,37.60
2018-08-19T06:17:13.514Z,32.83
2018-08-19T06:19:42.468Z,50.23
2018-08-19T06:22:11.342Z,36.20
2018-08-19T06:24:40.563Z,32.63
2018-08-19T06:27:09.481Z,29.00
2018-08-19T06:29:50.214Z,34.20
2018-08-19T06:32:27.050Z,32.70
2018-08-19T06:34:56.117Z,36.50
2018-08-19T06:37:24.782Z,28.60
2018-08-19T06:39:53.590Z,31.93
2018-08-19T06:42:23.070Z,30.47
2018-08-19T06:44:52.178Z,24.23
2018-08-19T06:47:21.125Z,27.70
2018-08-19T06:49:52.930Z,28.30
2018-08-19T06:52:22.508Z,20.40
2018-08-19T06:54:51.649Z,19.47
2018-08-19T06:57:20.583Z,20.23
2018-08-19T06:59:49.401Z,18.97
2018-08-19T07:02:18.851Z,17.37
2018-08-19T07:04:48.746Z,20.67
2018-08-19T07:07:19.034Z,17.00
2018-08-19T07:09:47.900Z,18.30
2018-08-19T07:12:18.510Z,20.53
2018-08-19T07:14:48.004Z,18.43
2018-08-19T07:17:17.449Z,15.63
2018-08-19T07:19:46.313Z,16.10
2018-08-19T07:22:16.287Z,18.17
2018-08-19T07:24:45.349Z,16.37
2018-08-19T07:27:16.345Z,17.57
2018-08-19T07:29:45.282Z,14.20
2018-08-19T07:32:15.917Z,16.53
2018-08-19T07:34:45.109Z,14.50
2018-08-19T07:37:14.259Z,15.43
2018-08-19T07:39:48.410Z,16.43
2018-08-19T07:42:19.322Z,13.30
2018-08-19T07:44:48.873Z,23.90
2018-08-19T07:47:17.711Z,15.20
2018-08-19T07:49:46.526Z,11.30
2018-08-19T07:52:15.438Z,11.50
2018-08-19T07:54:44.229Z,13.10
2018-08-19T07:57:21.654Z,15.50
2018-08-19T07:59:50.518Z,19.53
2018-08-19T08:02:19.353Z,15.20
2018-08-19T08:04:48.206Z,17.27
2018-08-19T08:07:17.029Z,17.80
2018-08-19T08:09:45.802Z,14.00
2018-08-19T08:12:14.862Z,17.67
2018-08-19T08:14:48.941Z,14.57
2018-08-19T08:17:17.973Z,14.47
2018-08-19T08:19:53.026Z,13.97
2018-08-19T08:22:21.986Z,15.37
2018-08-19T08:24:50.764Z,13.60
2018-08-19T08:27:19.589Z,12.60
2018-08-19T08:29:48.445Z,12.93
2018-08-19T08:32:17.273Z,12.27
2018-08-19T08:34:46.136Z,12.90
2018-08-19T08:37:15.143Z,18.23
2018-08-19T08:39:43.936Z,8.40
2018-08-19T08:42:12.789Z,11.53
2018-08-19T08:44:41.634Z,10.40
2018-08-19T08:47:12.034Z,13.17
2018-08-19T08:49:46.709Z,11.60
2018-08-19T08:52:24.784Z,15.10
2018-08-19T08:55:08.353Z,10.93
2018-08-19T08:57:38.897Z,12.93
2018-08-19T09:00:09.339Z,12.57
2018-08-19T09:02:38.387Z,10.30
2018-08-19T09:05:09.549Z,8.97
2018-08-19T09:07:42.271Z,11.97
2018-08-19T09:10:13.473Z,11.77
2018-08-19T09:12:50.512Z,8.60
2018-08-19T09:15:19.584Z,9.23
2018-08-19T09:17:48.412Z,9.70
2018-08-19T09:20:17.266Z,10.30
2018-08-19T09:22:46.977Z,9.60
2018-08-19T09:25:15.764Z,8.90
2018-08-19T09:27:44.784Z,10.60
2018-08-19T09:30:42.363Z,11.17
2018-08-19T09:33:11.910Z,8.70
2018-08-19T09:35:42.097Z,14.30
2018-08-19T09:38:15.613Z,17.10
2018-08-19T09:40:44.816Z,8.73
2018-08-19T09:43:13.915Z,7.70
2018-08-19T09:45:43.168Z,9.73
2018-08-19T09:48:12.678Z,10.50
2018-08-19T09:50:42.234Z,9.70
2018-08-19T09:53:11.054Z,9.83
2018-08-19T09:55:41.379Z,10.10
2018-08-19T09:58:12.070Z,10.07
2018-08-19T10:00:46.062Z,10.07
2018-08-19T10:03:14.890Z,9.57
2018-08-19T10:05:43.681Z,8.83
2018-08-19T10:08:12.525Z,8.80
2018-08-19T10:10:41.345Z,9.00
2018-08-19T10:13:10.262Z,10.33
2018-08-19T10:15:39.081Z,8.80
2018-08-19T10:18:09.419Z,11.03
2018-08-19T10:20:38.293Z,7.40
2018-08-19T10:23:07.327Z,9.20
2018-08-19T10:25:36.158Z,7.63
2018-08-19T10:28:05.008Z,13.83
2018-08-19T10:30:33.852Z,9.53
2018-08-19T10:33:08.271Z,7.33
2018-08-19T10:35:37.121Z,9.97
2018-08-19T10:38:06.074Z,6.70
2018-08-19T10:40:34.932Z,7.47
2018-08-19T10:43:08.709Z,9.00
2018-08-19T10:45:38.879Z,8.67
2018-08-19T10:48:09.520Z,8.00
2018-08-19T10:50:38.284Z,10.97
2018-08-19T10:53:13.486Z,9.03
2018-08-19T10:55:42.371Z,7.73
2018-08-19T10:58:11.189Z,5.67
2018-08-19T11:00:39.994Z,9.63
2018-08-19T11:03:20.072Z,8.47
2018-08-19T11:05:52.810Z,9.10
2018-08-19T11:08:21.725Z,13.73
2018-08-19T11:10:50.606Z,6.97
2018-08-19T11:13:21.308Z,9.63
2018-08-19T11:15:58.373Z,7.23
2018-08-19T11:18:41.064Z,13.43
2018-08-19T11:21:15.216Z,10.10
2018-08-19T11:23:45.327Z,9.57
2018-08-19T11:26:14.413Z,9.60
2018-08-19T11:28:46.676Z,6.73
2018-08-19T11:31:22.621Z,9.00
2018-08-19T11:33:52.151Z,11.03
2018-08-19T11:36:22.747Z,8.77
2018-08-19T11:38:53.332Z,8.50
2018-08-19T11:41:22.159Z,13.67
2018-08-19T11:43:51.532Z,7.50
2018-08-19T11:46:20.340Z,12.07
2018-08-19T11:48:55.359Z,11.30
2018-08-19T11:51:38.074Z,11.43
2018-08-19T11:54:06.880Z,9.43
2018-08-19T11:56:35.665Z,9.80
2018-08-19T11:59:04.500Z,8.20
2018-08-19T12:01:33.510Z,10.33
2018-08-19T12:04:09.045Z,7.40
2018-08-19T12:06:37.861Z,10.80
2018-08-19T12:09:08.408Z,13.50
2018-08-19T12:11:38.589Z,10.50
2018-08-19T12:14:10.052Z,8.30
2018-08-19T12:16:50.957Z,8.37
2018-08-19T12:19:21.090Z,10.57
2018-08-19T12:21:57.241Z,9.47
2018-08-19T12:24:28.575Z,8.07
2018-08-19T12:27:00.352Z,9.77
2018-08-19T12:29:30.339Z,7.83
2018-08-19T12:32:12.881Z,8.77
2018-08-19T12:35:00.247Z,8.80
2018-08-19T12:37:30.282Z,6.63
2018-08-19T12:39:59.853Z,12.50
2018-08-19T12:42:29.350Z,13.50
2018-08-19T12:45:06.450Z,9.70
2018-08-19T12:47:36.019Z,16.00
2018-08-19T12:50:09.559Z,9.73
2018-08-19T12:52:38.339Z,9.00
2018-08-19T12:55:13.973Z,7.93
2018-08-19T12:57:43.632Z,7.80
2018-08-19T13:00:19.703Z,8.83
2018-08-19T13:02:50.219Z,9.00
2018-08-19T13:05:19.627Z,9.50
2018-08-19T13:07:48.542Z,8.13
2018-08-19T13:10:17.805Z,6.83
2018-08-19T13:12:57.746Z,10.33
2018-08-19T13:15:28.905Z,8.80
2018-08-19T13:17:57.845Z,7.07
2018-08-19T13:20:26.882Z,9.13
2018-08-19T13:23:04.427Z,11.33
2018-08-19T13:25:33.668Z,10.67
2018-08-19T13:28:02.576Z,10.27
2018-08-19T13:30:31.416Z,11.47
2018-08-19T13:33:00.256Z,12.37
2018-08-19T13:35:29.059Z,10.60
2018-08-19T13:37:57.919Z,14.37
2018-08-19T13:40:26.760Z,11.67
2018-08-19T13:42:55.571Z,7.13
2018-08-19T13:45:26.914Z,10.73
2018-08-19T13:47:55.669Z,8.20
2018-08-19T13:50:24.524Z,6.73
2018-08-19T13:52:53.553Z,10.97
2018-08-19T13:55:22.396Z,8.23
2018-08-19T13:57:51.268Z,8.60
2018-08-19T14:00:21.901Z,8.03
2018-08-19T14:02:51.163Z,9.83
2018-08-19T14:05:19.909Z,10.63
2018-08-19T14:07:48.709Z,9.80
2018-08-19T14:10:17.617Z,8.50
2018-08-19T14:12:46.492Z,13.07
2018-08-19T14:15:15.310Z,6.50
2018-08-19T14:17:44.209Z,8.30
2018-08-19T14:20:13.058Z,7.97
2018-08-19T14:22:41.879Z,6.00
2018-08-19T14:25:11.785Z,6.10
2018-08-19T14:27:40.737Z,8.03
2018-08-19T14:30:11.505Z,8.83
2018-08-19T14:32:41.516Z,6.87
2018-08-19T14:35:10.438Z,10.10
2018-08-19T14:37:39.370Z,7.10
2018-08-19T14:40:11.109Z,12.13
2018-08-19T14:42:39.919Z,7.43
2018-08-19T14:45:08.840Z,9.10
2018-08-19T14:47:37.705Z,7.63
2018-08-19T14:50:12.714Z,7.20
2018-08-19T14:52:42.479Z,9.50
2018-08-19T14:55:12.665Z,6.83
2018-08-19T14:57:41.512Z,7.77
2018-08-19T15:00:13.254Z,8.73
2018-08-19T15:02:42.174Z,7.10
2018-08-19T15:05:19.358Z,7.13
2018-08-19T15:07:48.831Z,8.63
2018-08-19T15:10:22.635Z,10.27
2018-08-19T15:12:51.950Z,6.97
2018-08-19T15:15:20.835Z,8.93
2018-08-19T15:17:57.924Z,6.23
2018-08-19T15:20:32.123Z,7.77
2018-08-19T15:23:11.925Z,10.80
2018-08-19T15:25:40.702Z,8.80
2018-08-19T15:28:09.452Z,7.10
2018-08-19T15:30:40.551Z,10.53
2018-08-19T15:33:10.551Z,7.53
2018-08-19T15:35:39.205Z,11.80
2018-08-19T15:38:08.107Z,12.83
2018-08-19T15:40:40.390Z,7.50
2018-08-19T15:43:11.858Z,7.43
2018-08-19T15:45:41.216Z,13.63
2018-08-19T15:48:15.844Z,6.37
2018-08-19T15:50:44.933Z,9.30
2018-08-19T15:53:19.337Z,5.80
2018-08-19T15:55:51.000Z,5.70
2018-08-19T15:58:20.807Z,9.20
2018-08-19T16:00:49.740Z,6.63
2018-08-19T16:03:20.465Z,10.67
2018-08-19T16:05:56.961Z,8.57
2018-08-19T16:08:25.772Z,5.30
2018-08-19T16:10:54.635Z,9.70
2018-08-19T16:13:26.049Z,8.23
2018-08-19T16:15:55.521Z,7.13
2018-08-19T16:18:24.962Z,5.50
2018-08-19T16:20:58.378Z,5.00
2018-08-19T16:23:27.340Z,8.90
2018-08-19T16:25:56.157Z,6.93
2018-08-19T16:28:25.088Z,8.20
2018-08-19T16:30:54.174Z,24.13
2018-08-19T16:33:23.064Z,30.40
2018-08-19T16:35:51.886Z,47.47
2018-08-19T16:38:20.759Z,15.03
2018-08-19T16:40:49.658Z,27.60
2018-08-19T16:43:18.520Z,21.33
2018-08-19T16:45:47.366Z,16.27
2018-08-19T16:48:16.129Z,13.27
2018-08-19T16:50:44.950Z,11.93
2018-08-19T16:53:13.748Z,46.30
2018-08-19T16:55:42.527Z,12.43
2018-08-19T16:58:11.330Z,44.07
2018-08-19T17:00:40.205Z,16.43
2018-08-19T17:03:24.445Z,16.10
2018-08-19T17:05:53.841Z,12.00
2018-08-19T17:08:24.597Z,9.10
2018-08-19T17:10:54.431Z,9.20
2018-08-19T17:13:32.689Z,11.67
2018-08-19T17:16:02.953Z,11.40
2018-08-19T17:18:33.202Z,8.73
2018-08-19T17:21:02.250Z,10.60
2018-08-19T17:23:31.135Z,4.83
2018-08-19T17:26:03.278Z,9.33
2018-08-19T17:28:32.115Z,9.97
2018-08-19T17:31:02.384Z,8.23
2018-08-19T17:33:31.990Z,10.60
2018-08-19T17:36:00.830Z,12.23
2018-08-19T17:38:32.110Z,7.20
2018-08-19T17:41:01.337Z,8.80
2018-08-19T17:43:35.492Z,10.43
2018-08-19T17:46:20.772Z,7.17
2018-08-19T17:48:49.922Z,9.53
2018-08-19T17:51:28.604Z,10.10
2018-08-19T17:53:57.528Z,8.30
2018-08-19T17:56:26.362Z,8.70
2018-08-19T17:58:56.064Z,9.07
2018-08-19T18:01:25.643Z,7.73
2018-08-19T18:03:54.906Z,10.30
2018-08-19T18:06:24.060Z,10.53
2018-08-19T18:08:53.695Z,7.60
2018-08-19T18:11:22.717Z,9.67
2018-08-19T18:13:53.712Z,8.73
2018-08-19T18:16:22.601Z,10.73
2018-08-19T18:18:56.049Z,9.77
2018-08-19T18:21:26.471Z,7.50
2018-08-19T18:23:55.401Z,6.47
2018-08-19T18:26:24.252Z,11.60
2018-08-19T18:28:53.042Z,8.57
2018-08-19T18:31:23.610Z,10.83
2018-08-19T18:33:56.563Z,11.50
2018-08-19T18:36:26.509Z,10.70
2018-08-19T18:38:57.367Z,9.20
2018-08-19T18:41:31.737Z,7.30
2018-08-19T18:44:05.620Z,12.73
2018-08-19T18:46:35.026Z,9.37
2018-08-19T18:49:10.145Z,10.30
2018-08-19T18:51:40.007Z,10.60
2018-08-19T18:54:16.935Z,8.30
2018-08-19T18:56:45.885Z,10.20
2018-08-19T18:59:14.713Z,9.27
2018-08-19T19:01:43.627Z,8.47
2018-08-19T19:04:12.453Z,8.13
2018-08-19T19:06:41.273Z,11.00
2018-08-19T19:09:13.375Z,7.87
2018-08-19T19:11:43.494Z,8.17
2018-08-19T19:14:20.647Z,12.73
2018-08-19T19:16:54.100Z,8.63
2018-08-19T19:19:24.193Z,10.73
2018-08-19T19:21:58.348Z,12.17
2018-08-19T19:24:32.442Z,10.67
2018-08-19T19:27:01.362Z,10.77
2018-08-19T19:29:30.200Z,13.20
2018-08-19T19:32:00.072Z,9.03
2018-08-19T19:34:31.322Z,6.63
2018-08-19T19:37:00.080Z,6.73
2018-08-19T19:39:28.907Z,17.80
2018-08-19T19:42:14.067Z,10.33
2018-08-19T19:44:57.276Z,9.80
2018-08-19T19:47:26.298Z,10.60
2018-08-19T19:50:15.148Z,13.00
2018-08-19T19:52:49.622Z,9.30
2018-08-19T19:55:18.436Z,10.97
2018-08-19T19:57:47.257Z,12.37
2018-08-19T20:00:16.082Z,11.10
2018-08-19T20:02:44.855Z,13.53
2018-08-19T20:05:19.118Z,10.97
2018-08-19T20:07:47.945Z,13.17
2018-08-19T20:10:37.243Z,7.70
2018-08-19T20:13:27.341Z,12.03
2018-08-19T20:15:57.247Z,9.30
2018-08-19T20:18:26.127Z,11.50
2018-08-19T20:20:54.902Z,15.30
2018-08-19T20:23:23.712Z,14.70
2018-08-19T20:25:53.118Z,13.40
2018-08-19T20:28:21.880Z,14.37
2018-08-19T20:30:50.724Z,16.87
2018-08-19T20:33:27.974Z,11.17
2018-08-19T20:35:56.942Z,15.93
2018-08-19T20:38:26.298Z,15.13
2018-08-19T20:40:55.907Z,12.93
2018-08-19T20:43:25.276Z,9.90
2018-08-19T20:45:54.069Z,19.03
2018-08-19T20:48:23.491Z,13.90
2018-08-19T20:50:52.279Z,14.37
2018-08-19T20:53:21.066Z,21.10
2018-08-19T20:55:49.888Z,18.63
2018-08-19T20:58:18.696Z,21.73
2018-08-19T21:00:47.533Z,17.63
2018-08-19T21:03:16.391Z,19.57
2018-08-19T21:05:45.191Z,14.40
2018-08-19T21:08:15.736Z,19.20
2018-08-19T21:10:45.527Z,23.93
2018-08-19T21:13:18.551Z,19.03
2018-08-19T21:15:48.513Z,20.97
2018-08-19T21:18:23.911Z,22.80
2018-08-19T21:20:54.176Z,22.43
2018-08-19T21:23:22.964Z,13.60
2018-08-19T21:25:57.050Z,14.87
2018-08-19T21:28:26.159Z,22.50
2018-08-19T21:30:55.003Z,16.57
2018-08-19T21:33:23.859Z,18.67
2018-08-19T21:35:54.114Z,14.33
2018-08-19T21:38:22.912Z,25.10
2018-08-19T21:40:55.338Z,16.50
2018-08-19T21:43:27.034Z,21.90
2018-08-19T21:45:55.862Z,19.63
2018-08-19T21:48:24.652Z,20.90
2018-08-19T21:50:53.538Z,18.80
2018-08-19T21:53:22.360Z,16.00
2018-08-19T21:55:52.147Z,16.87
2018-08-19T21:58:20.984Z,24.80
2018-08-19T22:00:54.661Z,24.17
2018-08-19T22:03:57.333Z,20.47
2018-08-19T22:06:26.162Z,19.97
2018-08-19T22:08:54.958Z,19.17
2018-08-19T22:11:24.572Z,18.17
2018-08-19T22:13:53.390Z,21.97
2018-08-19T22:16:22.188Z,18.13
2018-08-19T22:18:51.032Z,19.80
2018-08-19T22:21:22.324Z,17.13
2018-08-19T22:23:52.616Z,16.67
2018-08-19T22:26:22.094Z,16.97
2018-08-19T22:29:07.454Z,14.47
2018-08-19T22:31:36.386Z,18.70
2018-08-19T22:34:05.156Z,15.47
2018-08-19T22:36:33.966Z,15.73
2018-08-19T22:39:02.827Z,17.30
2018-08-19T22:41:33.159Z,16.63
2018-08-19T22:44:01.980Z,13.10
2018-08-19T22:46:30.843Z,14.10
2018-08-19T22:48:59.874Z,13.77
2018-08-19T22:51:33.180Z,11.53
2018-08-19T22:54:02.009Z,13.67
2018-08-19T22:56:30.792Z,10.57
2018-08-19T22:58:59.600Z,14.50
2018-08-19T23:01:33.785Z,12.20
2018-08-19T23:04:03.509Z,10.80
2018-08-19T23:06:33.071Z,10.23
2018-08-19T23:09:02.456Z,11.80
2018-08-19T23:11:37.092Z,15.40
2018-08-19T23:14:17.348Z,12.50
2018-08-19T23:16:46.233Z,13.33
2018-08-19T23:19:15.092Z,17.33
2018-08-19T23:21:43.946Z,15.43
2018-08-19T23:24:12.773Z,14.27
2018-08-19T23:26:42.435Z,13.27
2018-08-19T23:29:11.234Z,11.47
2018-08-19T23:31:40.003Z,13.53
2018-08-19T23:34:08.752Z,9.80
2018-08-19T23:36:37.721Z,9.60
2018-08-19T23:39:08.492Z,16.27
2018-08-19T23:41:37.270Z,12.10
2018-08-19T23:44:06.060Z,7.20
2018-08-19T23:46:34.859Z,11.10
2018-08-19T23:49:03.642Z,10.03
2018-08-19T23:51:32.782Z,9.73
2018-08-19T23:54:02.770Z,14.53
2018-08-19T23:56:31.912Z,13.77
2018-08-19T23:59:00.980Z,11.30
